Terminal Aerodrome Forecast
Issued by NWS Riverton, WY

Home | Current Version | Previous Version | Text Only | Print | Product List | Glossary On
Versions: 1 2 3 4 5 6 7 8 9 10 11 12 13 14
061
FTUS45 KRIW 231122
TAFRIW
TAF
KRIW 231122Z 2312/2412 02008KT P6SM SCT120
     FM231400 02015KT P6SM VCSH SCT040 BKN090
     FM231800 02020G30KT P6SM VCSH SCT030 BKN040
     FM240600 01010KT P6SM SCT040 BKN060=

USA.gov is the U.S. government's official web portal to all federal, state and local government web resources and services.